Flight Track Log - Related Links

Times and Time Zones

All times are in EDT time to prevent confusion due to time zone crossing. See the FLG3709 flight status page for this flight to view local times or setup timezone preferences in your user account.

Time Position Orientation Groundspeed Altitude Reporting Facility
EDT Latitude Longitude Course Direction KTS MPH feet Rate Location/Type
Thu 07:16:14 AM 40.5414 -80.1078 270° West 220 253 4,500  Level Cleveland Center
Thu 07:17:00 AM 40.4667 -80.5628 270° West  Level FlightAware Approximate
Thu 07:17:14 AM 40.5772 -80.1922 299° West 120 138 7,400  Level Cleveland Center
Thu 07:18:00 AM 40.4667 -80.6789 270° West  Level FlightAware Approximate
Thu 07:18:14 AM 40.5672 -80.2878 262° West 179 206 10,000  Level Cleveland Center
Thu 07:19:00 AM 40.4667 -80.7950 270° West  Level FlightAware Approximate
Thu 07:19:14 AM 40.5631 -80.3944 267° West 222 255 11,600  Level Cleveland Center
Thu 07:20:00 AM 40.4667 -80.9111 270° West  Level FlightAware Approximate
Thu 07:20:14 AM 40.5569 -80.5147 266° West 277 319 13,300  Level Cleveland Center
Thu 07:21:00 AM 40.4667 -81.0273 270° West  Level FlightAware Approximate
Thu 07:21:14 AM 40.5508 -80.6378 266° West 321 369 15,500  Level Cleveland Center
Thu 07:22:14 AM 40.5444 -80.7633 266° West 346 398 17,000 1,450 Climbing Cleveland Center
Thu 07:23:14 AM 40.5358 -80.8972 265° West 360 414 18,400 1,350 Climbing Cleveland Center
Thu 07:24:14 AM 40.5292 -81.0283 266° West 366 421 19,700 530 Climbing Cleveland Center
Thu 07:26:15 AM 40.5097 -81.3092 265° West 390 449 20,000 99 Climbing Indianapolis Center
Thu 07:27:16 AM 40.5014 -81.4589 266° West 403 464 20,000  Level Indianapolis Center
Thu 07:28:17 AM 40.4911 -81.6081 265° West 404 465 20,000  Level Indianapolis Center
Thu 07:29:18 AM 40.4450 -81.7481 247° West 412 474 20,000  Level Indianapolis Center
Thu 07:30:19 AM 40.3958 -81.8825 244° Southwest 407 468 20,000  Level Indianapolis Center
Thu 07:31:20 AM 40.3464 -82.0175 244° Southwest 407 468 20,000  Level Indianapolis Center
Thu 07:32:21 AM 40.2961 -82.1533 244° Southwest 407 468 20,000  Level Indianapolis Center
Thu 07:33:22 AM 40.2467 -82.2886 244° Southwest 408 470 20,000  Level Indianapolis Center
Thu 07:34:23 AM 40.1972 -82.4211 244° Southwest 407 468 20,000  Level Indianapolis Center
Thu 07:35:24 AM 40.1472 -82.5528 244° Southwest 402 463 20,000  Level Indianapolis Center
Thu 07:36:25 AM 40.0900 -82.7075 244° Southwest 401 461 20,000  Level Indianapolis Center
Thu 07:37:26 AM 40.0389 -82.8394 243° Southwest 403 464 20,000  Level Indianapolis Center
Thu 07:38:27 AM 39.9900 -82.9700 244° Southwest 399 459 20,000 -148 Level Indianapolis Center
Thu 07:39:28 AM 39.9381 -83.0994 242° Southwest 398 458 19,700 -590 Descending Indianapolis Center
Thu 07:40:29 AM 39.8833 -83.2292 241° Southwest 402 463 18,800 -1,033 Descending Indianapolis Center
Thu 07:41:30 AM 39.8300 -83.3533 241° Southwest 392 451 17,600 -1,033 Descending Indianapolis Center
Thu 07:42:31 AM 39.7856 -83.4589 241° Southwest 384 442 16,700 -984 Descending Indianapolis Center
Thu 07:43:32 AM 39.7331 -83.5822 241° Southwest 378 435 15,600 -1,131 Descending Indianapolis Center
Thu 07:44:33 AM 39.6819 -83.7019 241° Southwest 374 430 14,400 -1,131 Descending Indianapolis Center
Thu 07:45:34 AM 39.6314 -83.8206 241° Southwest 372 428 13,300 -1,082 Descending Indianapolis Center
Thu 07:46:35 AM 39.5758 -83.9328 237° Southwest 365 420 12,200 -1,131 Descending Indianapolis Center
Thu 07:47:36 AM 39.4978 -84.0431 227° Southwest 355 409 11,000 -639 Descending Indianapolis Center
Thu 07:48:37 AM 39.4414 -84.1256 229° Southwest 303 349 10,900 -787 Descending Indianapolis Center
Thu 07:49:38 AM 39.4167 -84.2111 250° West 256 295 9,400 -934 Descending Indianapolis Center
Thu 07:50:39 AM 39.3925 -84.2875 248° West 232 267 9,000 -590 Descending Indianapolis Center
Thu 07:51:40 AM 39.3669 -84.3694 248° West 237 273 8,200 -885 Descending Indianapolis Center
Thu 07:52:41 AM 39.3317 -84.4375 236° Southwest 232 267 7,200 -1,033 Descending Indianapolis Center
Thu 07:53:42 AM 39.2933 -84.5006 232° Southwest 225 259 6,100 -1,475 Descending Indianapolis Center
Thu 07:54:43 AM 39.2581 -84.5611 233° Southwest 217 250 4,200 -1,131 Descending Indianapolis Center
Thu 07:55:44 AM 39.2244 -84.6189 233° Southwest 216 249 3,800 -766 Descending Indianapolis Center
Thu 07:56:17 AM 39.2000 -84.6333 205° Southwest 183 211 3,000 -839 Descending Cincinnati TRACON
Thu 07:57:17 AM 39.1500 -84.6667 207° Southwest 135 155 2,500 -500 Descending Cincinnati TRACON

Login

Don't have an account? Register now (free) for customized features, flight alerts, and more!